Time;durP1;ratioP1;P1;durP2;ratioP2;P2;SDS_P1;SDS_P2;PMS_P1;PMS_P2;Temp;Humidity;BMP_temperature;BMP_pressure;BME280_temperature;BME280_humidity;BME280_pressure;Samples;Min_cycle;Max_cycle;Signal;HPM_P1;HPM_P2
2022/08/08 00:01:42;;;;;;;61.40;58.22;;;;;;;25.92;34.09;102349.50;4880978;29;20048;-69
2022/08/08 00:04:36;;;;;;;63.33;59.95;;;;;;;25.87;34.48;102348.47;4880812;29;20061;-69
2022/08/08 00:07:43;;;;;;;64.50;61.20;;;;;;;25.83;34.13;102352.97;4879935;29;20536;-69
2022/08/08 00:10:21;;;;;;;63.13;59.65;;;;;;;25.79;34.27;102357.47;4868476;29;20449;-71
2022/08/08 00:13:06;;;;;;;63.53;59.80;;;;;;;25.76;34.52;102352.53;4880118;29;20108;-68
2022/08/08 00:15:36;;;;;;;66.78;63.47;;;;;;;25.72;34.77;102351.50;4880318;29;20065;-69
2022/08/08 00:18:17;;;;;;;66.75;62.95;;;;;;;25.69;34.59;102352.13;4879876;29;20029;-68
2022/08/08 00:20:55;;;;;;;60.55;57.28;;;;;;;25.67;34.91;102351.59;4880011;29;20033;-72
2022/08/08 00:23:41;;;;;;;61.70;58.53;;;;;;;25.63;34.83;102351.41;4879681;29;20036;-71
2022/08/08 00:26:09;;;;;;;61.58;58.45;;;;;;;25.60;34.88;102353.97;4880149;29;20085;-69
2022/08/08 00:28:43;;;;;;;63.75;60.33;;;;;;;25.58;34.63;102350.69;4880197;29;20033;-70
2022/08/08 00:31:18;;;;;;;61.90;57.80;;;;;;;25.54;34.83;102349.66;4880102;29;20539;-69
2022/08/08 00:37:09;;;;;;;64.07;60.88;;;;;;;25.47;34.77;102350.84;4873738;29;20497;-71
2022/08/08 00:39:52;;;;;;;60.35;56.75;;;;;;;25.43;34.99;102354.56;4880341;29;20442;-70
2022/08/08 00:42:36;;;;;;;59.78;56.55;;;;;;;25.40;35.12;102347.69;4880032;29;20455;-69
2022/08/08 00:45:32;;;;;;;63.00;59.40;;;;;;;25.37;34.89;102348.28;4894018;29;20037;-69
2022/08/08 00:48:16;;;;;;;62.30;59.05;;;;;;;25.33;35.07;102338.16;4879392;29;20029;-69
2022/08/08 00:50:56;;;;;;;61.40;57.53;;;;;;;25.29;35.35;102337.94;4896718;29;20045;-69
2022/08/08 00:53:36;;;;;;;58.92;55.60;;;;;;;25.27;35.44;102340.16;4899985;29;20120;-70
2022/08/08 00:56:38;;;;;;;61.72;58.42;;;;;;;25.23;35.49;102344.69;4900061;29;20044;-69
2022/08/08 00:59:12;;;;;;;62.47;58.95;;;;;;;25.19;35.12;102344.47;4885923;29;20049;-69
2022/08/08 01:01:50;;;;;;;58.88;55.88;;;;;;;25.16;35.37;102342.31;4885887;29;20037;-70
2022/08/08 01:04:34;;;;;;;61.58;57.83;;;;;;;25.13;35.19;102337.34;4885861;29;20029;-70
2022/08/08 01:07:22;;;;;;;61.30;58.08;;;;;;;25.10;35.58;102340.72;4885928;29;20032;-70
2022/08/08 01:10:25;;;;;;;63.22;59.65;;;;;;;25.07;35.62;102337.72;4900447;29;20037;-72
2022/08/08 01:13:28;;;;;;;58.60;55.08;;;;;;;25.02;35.33;102339.47;4885639;29;20040;-69
2022/08/08 01:16:01;;;;;;;60.85;57.35;;;;;;;24.99;35.73;102331.78;4886116;29;20029;-69
2022/08/08 01:18:45;;;;;;;61.90;58.55;;;;;;;24.96;35.88;102334.31;4886198;29;20117;-69
2022/08/08 01:21:36;;;;;;;57.80;54.85;;;;;;;24.94;35.56;102333.81;4885605;29;20039;-70
2022/08/08 01:24:33;;;;;;;59.75;56.55;;;;;;;24.89;35.88;102337.47;4882907;29;20076;-70
2022/08/08 01:27:33;;;;;;;61.05;57.33;;;;;;;24.87;35.79;102339.72;4886081;29;20162;-69
2022/08/08 01:30:23;;;;;;;60.42;56.92;;;;;;;24.82;35.78;102340.63;4877246;29;20056;-69
2022/08/08 01:33:07;;;;;;;59.20;55.72;;;;;;;24.79;35.74;102340.41;4885483;29;20040;-70
2022/08/08 01:35:57;;;;;;;58.38;55.08;;;;;;;24.76;35.71;102346.53;4885491;29;20100;-69
2022/08/08 01:39:03;;;;;;;58.50;55.33;;;;;;;24.73;35.92;102344.38;4885590;29;20083;-70
2022/08/08 01:41:52;;;;;;;57.00;53.70;;;;;;;24.69;36.30;102344.13;4885122;29;20527;-69
2022/08/08 01:44:39;;;;;;;58.08;54.22;;;;;;;24.66;35.93;102344.75;4884848;29;20063;-69
2022/08/08 01:47:31;;;;;;;60.15;56.85;;;;;;;24.63;36.18;102344.53;4885877;29;20462;-69
2022/08/08 01:50:07;;;;;;;58.53;55.33;;;;;;;24.59;36.33;102349.81;4885381;29;20120;-69
2022/08/08 01:52:55;;;;;;;58.35;54.97;;;;;;;24.56;36.03;102342.13;4885674;29;20101;-70
2022/08/08 01:55:37;;;;;;;57.87;54.67;;;;;;;24.53;36.13;102338.03;4886226;29;20057;-69
2022/08/08 01:58:37;;;;;;;60.63;57.22;;;;;;;24.51;36.44;102339.44;4885564;29;20025;-69
2022/08/08 02:01:40;;;;;;;58.33;54.70;;;;;;;24.48;36.11;102345.56;4885238;29;20040;-69
2022/08/08 02:04:35;;;;;;;57.28;53.78;;;;;;;24.43;36.06;102343.66;4881390;29;20040;-69
2022/08/08 02:07:07;;;;;;;58.05;54.72;;;;;;;24.40;36.70;102342.31;4881993;29;20089;-70
2022/08/08 02:09:57;;;;;;;58.42;55.17;;;;;;;24.37;36.39;102340.16;4882302;29;20113;-69
2022/08/08 02:12:49;;;;;;;56.55;53.55;;;;;;;24.34;36.79;102338.00;4882336;29;20040;-68
2022/08/08 02:15:20;;;;;;;57.85;54.28;;;;;;;24.32;36.42;102339.41;4882381;29;20093;-69
2022/08/08 02:17:55;;;;;;;57.88;54.70;;;;;;;24.30;36.70;102339.72;4882206;29;20097;-69
2022/08/08 02:20:28;;;;;;;57.08;53.55;;;;;;;24.28;36.90;102341.13;4882672;29;20029;-69
2022/08/08 02:23:00;;;;;;;55.10;52.10;;;;;;;24.25;37.02;102338.97;4882639;29;20033;-71
2022/08/08 02:25:56;;;;;;;57.05;53.95;;;;;;;24.23;37.08;102343.94;4881794;29;20390;-69
2022/08/08 02:28:43;;;;;;;57.00;53.50;;;;;;;24.19;36.51;102339.03;4879057;29;20045;-68
2022/08/08 02:31:34;;;;;;;57.08;53.92;;;;;;;24.17;37.00;102340.44;4881855;29;20044;-69
2022/08/08 02:34:16;;;;;;;55.75;52.55;;;;;;;24.12;37.09;102346.84;4881548;29;20036;-68
2022/08/08 02:36:50;;;;;;;56.17;52.97;;;;;;;24.11;36.78;102347.13;4881755;29;20124;-69
2022/08/08 02:39:23;;;;;;;56.70;52.95;;;;;;;24.07;36.61;102341.41;4881672;29;20507;-69
2022/08/08 02:42:26;;;;;;;56.10;53.10;;;;;;;24.05;36.82;102351.91;4881832;29;20112;-68
2022/08/08 02:45:12;;;;;;;57.10;53.50;;;;;;;24.02;36.84;102348.94;4881916;29;20478;-69
2022/08/08 02:48:16;;;;;;;52.85;49.95;;;;;;;23.98;36.84;102349.50;4882081;29;20041;-69
2022/08/08 02:51:08;;;;;;;53.00;50.15;;;;;;;23.95;36.95;102350.09;4870963;29;20117;-70
2022/08/08 02:53:43;;;;;;;52.08;49.08;;;;;;;23.92;36.91;102342.41;4895736;29;20060;-69
2022/08/08 02:56:39;;;;;;;55.45;52.08;;;;;;;23.90;37.22;102349.34;4881778;29;20036;-69
2022/08/08 02:59:10;;;;;;;54.83;51.72;;;;;;;23.87;37.18;102352.69;4881862;29;20085;-69
2022/08/08 03:01:54;;;;;;;55.33;51.67;;;;;;;23.84;37.02;102348.56;4881304;29;20347;-69
2022/08/08 03:04:42;;;;;;;54.90;52.00;;;;;;;23.81;37.47;102356.59;4881277;29;20036;-67
2022/08/08 03:07:29;;;;;;;54.03;51.03;;;;;;;23.77;37.29;102348.09;4881788;29;20033;-70
2022/08/08 03:10:12;;;;;;;54.17;50.97;;;;;;;23.75;36.95;102353.91;4881208;29;20033;-70
2022/08/08 03:12:51;;;;;;;52.85;50.00;;;;;;;23.72;37.10;102348.97;4881465;29;20032;-68
2022/08/08 03:15:44;;;;;;;51.65;48.88;;;;;;;23.69;37.49;102348.72;4880748;29;20164;-68
2022/08/08 03:18:29;;;;;;;54.58;51.33;;;;;;;23.66;37.03;102347.38;4880760;29;20037;-68
2022/08/08 03:20:54;;;;;;;54.15;50.92;;;;;;;23.63;37.13;102352.63;4865872;29;20427;-67
2022/08/08 03:23:21;;;;;;;54.78;51.58;;;;;;;23.62;37.31;102345.50;4880867;29;20029;-68
2022/08/08 03:25:48;;;;;;;53.50;50.60;;;;;;;23.59;37.38;102351.59;4880950;29;20114;-69
2022/08/08 03:28:20;;;;;;;52.95;49.97;;;;;;;23.57;37.63;102354.63;4881280;29;20071;-69
2022/08/08 03:30:47;;;;;;;53.03;49.88;;;;;;;23.54;37.54;102347.75;4879551;29;20462;-69
2022/08/08 03:33:18;;;;;;;55.08;51.97;;;;;;;23.52;37.41;102349.97;4880683;29;20033;-69
2022/08/08 03:35:48;;;;;;;52.88;49.78;;;;;;;23.49;37.41;102350.56;4880680;29;20037;-69
2022/08/08 03:38:14;;;;;;;56.55;53.33;;;;;;;23.47;37.34;102350.03;4880748;29;20116;-68
2022/08/08 03:40:40;;;;;;;52.70;49.60;;;;;;;23.45;37.87;102348.69;4880961;29;20466;-69
2022/08/08 03:43:07;;;;;;;54.15;51.15;;;;;;;23.43;37.67;102357.22;4880755;29;20093;-68
2022/08/08 03:45:33;;;;;;;57.30;53.07;;;;;;;23.41;37.69;102355.88;4879614;29;20039;-69
2022/08/08 03:48:04;;;;;;;52.40;49.42;;;;;;;23.39;37.92;102360.88;4894967;29;20132;-69
2022/08/08 03:50:31;;;;;;;53.78;50.88;;;;;;;23.36;37.91;102354.03;4880271;29;20037;-70
2022/08/08 03:53:10;;;;;;;54.42;51.42;;;;;;;23.35;37.60;102363.38;4880308;29;20077;-69
2022/08/08 03:55:41;;;;;;;52.78;49.85;;;;;;;23.30;38.12;102350.47;4880671;29;20426;-69
2022/08/08 03:58:08;;;;;;;53.88;50.88;;;;;;;23.28;38.00;102365.66;4880119;29;20036;-69
2022/08/08 04:00:34;;;;;;;53.58;50.65;;;;;;;23.25;37.88;102358.78;4880378;29;20041;-69
2022/08/08 04:03:02;;;;;;;52.40;49.30;;;;;;;23.23;37.86;102368.44;4879335;29;20037;-69
2022/08/08 04:05:33;;;;;;;53.30;50.28;;;;;;;23.21;38.20;102377.03;4880692;29;20044;-69
2022/08/08 04:08:00;;;;;;;51.70;48.60;;;;;;;23.18;37.97;102372.06;4895295;29;20116;-69
2022/08/08 04:10:27;;;;;;;52.80;49.50;;;;;;;23.16;38.35;102374.31;4880139;29;20033;-69
2022/08/08 04:12:54;;;;;;;52.25;49.25;;;;;;;23.14;38.45;102373.78;4880124;29;20048;-70
2022/08/08 04:15:19;;;;;;;53.15;49.97;;;;;;;23.11;38.18;102377.94;4893989;29;20081;-70
2022/08/08 04:17:45;;;;;;;51.47;48.58;;;;;;;23.09;38.10;102376.56;4878931;29;20064;-69
2022/08/08 04:20:11;;;;;;;53.00;50.17;;;;;;;23.07;38.04;102379.63;4879660;29;20040;-70
2022/08/08 04:22:36;;;;;;;51.38;48.45;;;;;;;23.05;38.22;102376.31;4880035;29;20389;-69
2022/08/08 04:25:02;;;;;;;51.97;48.83;;;;;;;23.04;38.42;102382.13;4879468;29;20048;-70
2022/08/08 04:27:28;;;;;;;53.63;50.33;;;;;;;23.01;38.58;102379.97;4879439;29;20055;-69
2022/08/08 04:29:54;;;;;;;51.45;48.25;;;;;;;22.99;38.46;102382.16;4879670;29;20033;-70
2022/08/08 04:32:19;;;;;;;51.85;48.88;;;;;;;22.97;38.14;102389.88;4894377;29;20081;-69
2022/08/08 04:34:45;;;;;;;50.65;47.75;;;;;;;22.95;38.52;102386.56;4880016;29;20033;-69
2022/08/08 04:37:11;;;;;;;51.53;48.28;;;;;;;22.92;38.54;102390.72;4880242;29;20033;-70
2022/08/08 04:39:37;;;;;;;50.17;47.08;;;;;;;22.89;38.30;102386.59;4879803;29;20037;-68
2022/08/08 04:42:02;;;;;;;49.92;47.13;;;;;;;22.87;38.19;102391.56;4879694;29;20124;-69
2022/08/08 04:44:28;;;;;;;51.55;48.47;;;;;;;22.85;38.27;102396.53;4879618;29;20043;-70
2022/08/08 04:46:54;;;;;;;49.53;46.72;;;;;;;22.83;38.29;102398.78;4878534;29;20538;-69
2022/08/08 04:49:19;;;;;;;51.15;48.15;;;;;;;22.80;38.53;102407.59;4879879;29;20495;-68
2022/08/08 04:51:45;;;;;;;50.42;47.53;;;;;;;22.78;38.31;102404.31;4894250;29;20036;-70
2022/08/08 04:54:10;;;;;;;51.65;48.30;;;;;;;22.76;38.54;102403.78;4879378;29;20060;-69
2022/08/08 04:56:37;;;;;;;50.67;47.80;;;;;;;22.75;38.54;102404.06;4878126;29;20037;-69
2022/08/08 04:59:03;;;;;;;51.22;48.05;;;;;;;22.73;38.85;102400.75;4879634;29;20037;-68
2022/08/08 05:01:28;;;;;;;51.35;48.22;;;;;;;22.72;38.53;102410.13;4893836;29;20033;-69
2022/08/08 05:03:54;;;;;;;50.45;47.40;;;;;;;22.69;38.70;102408.78;4879613;29;20033;-69
2022/08/08 05:06:19;;;;;;;52.67;49.67;;;;;;;22.68;38.69;102416.22;4879458;29;20033;-70
2022/08/08 05:08:46;;;;;;;50.00;47.15;;;;;;;22.67;38.84;102414.56;4879633;29;20415;-70
2022/08/08 05:11:12;;;;;;;50.00;47.15;;;;;;;22.66;38.79;102417.63;4880078;29;20060;-71
2022/08/08 05:13:42;;;;;;;50.17;47.28;;;;;;;22.65;39.34;102413.19;4879750;29;20037;-69
2022/08/08 05:16:08;;;;;;;49.05;46.22;;;;;;;22.63;39.30;102416.25;4879926;29;20097;-70
2022/08/08 05:18:35;;;;;;;49.25;46.22;;;;;;;22.62;39.01;102422.03;4879071;29;20048;-69
2022/08/08 05:21:02;;;;;;;51.63;48.70;;;;;;;22.61;39.20;102423.16;4878869;29;20390;-70
2022/08/08 05:23:27;;;;;;;51.92;48.40;;;;;;;22.60;39.09;102432.50;4879833;29;20037;-71
2022/08/08 05:25:53;;;;;;;50.00;46.97;;;;;;;22.59;39.25;102428.13;4879295;29;20106;-72
2022/08/08 05:28:18;;;;;;;50.97;47.97;;;;;;;22.57;39.44;102435.84;4879084;29;20041;-68
2022/08/08 05:30:43;;;;;;;49.55;46.65;;;;;;;22.55;39.60;102438.03;4879272;29;20550;-70
2022/08/08 05:33:09;;;;;;;50.70;47.53;;;;;;;22.54;39.74;102437.22;4879344;29;20450;-70
2022/08/08 05:35:34;;;;;;;49.13;46.42;;;;;;;22.53;39.46;102429.22;4879076;29;20120;-69
2022/08/08 05:38:04;;;;;;;52.33;48.55;;;;;;;22.52;39.98;102433.91;4897006;29;20066;-70
2022/08/08 05:40:32;;;;;;;52.70;48.83;;;;;;;22.52;39.73;102441.38;4882086;29;20148;-70
2022/08/08 05:43:03;;;;;;;54.53;51.35;;;;;;;22.52;39.99;102431.16;4881765;29;20108;-69
2022/08/08 05:45:34;;;;;;;50.58;47.53;;;;;;;22.52;39.47;102433.91;4882383;29;20048;-70
2022/08/08 05:48:04;;;;;;;52.00;49.00;;;;;;;22.52;39.81;102441.38;4882854;29;20041;-70
2022/08/08 05:50:31;;;;;;;52.90;49.70;;;;;;;22.51;39.82;102437.78;4881981;29;20033;-68
2022/08/08 05:52:57;;;;;;;50.47;47.38;;;;;;;22.52;39.92;102430.34;4882328;29;20034;-71
2022/08/08 05:55:23;;;;;;;50.83;48.08;;;;;;;22.51;39.69;102440.53;4882046;29;20048;-70
2022/08/08 05:57:52;;;;;;;51.10;48.08;;;;;;;22.52;39.34;102439.44;4882138;29;20033;-69
2022/08/08 06:00:18;;;;;;;50.47;47.20;;;;;;;22.52;39.54;102441.38;4882102;29;20037;-67
2022/08/08 06:05:58;;;;;;;51.78;48.78;;;;;;;22.52;40.07;102450.44;4882469;29;20080;-68
2022/08/08 06:08:29;;;;;;;51.75;48.58;;;;;;;22.52;39.63;102450.44;4882075;29;20128;-70
2022/08/08 06:10:57;;;;;;;49.92;47.13;;;;;;;22.52;39.75;102452.38;4880550;29;20120;-69
2022/08/08 06:13:27;;;;;;;53.13;49.80;;;;;;;22.54;40.03;102450.16;4881749;29;20033;-69
2022/08/08 06:15:54;;;;;;;48.78;46.15;;;;;;;22.53;39.60;102459.53;4881589;29;20124;-69
2022/08/08 06:18:23;;;;;;;49.95;46.95;;;;;;;22.55;40.03;102462.81;4881944;29;20096;-72
2022/08/08 06:20:51;;;;;;;49.42;46.55;;;;;;;22.55;39.89;102466.41;4881661;29;20117;-70
2022/08/08 06:23:16;;;;;;;49.10;46.30;;;;;;;22.55;39.87;102466.41;4881649;29;20040;-70
2022/08/08 06:25:42;;;;;;;49.42;46.35;;;;;;;22.57;40.01;102468.88;4881329;29;20109;-70
2022/08/08 06:28:22;;;;;;;47.17;44.45;;;;;;;22.57;40.67;102477.16;4896385;29;20375;-70
2022/08/08 06:30:51;;;;;;;48.95;45.97;;;;;;;22.58;40.16;102478.78;4896821;29;20041;-70
2022/08/08 06:33:25;;;;;;;47.67;45.17;;;;;;;22.57;39.99;102472.44;4881289;29;20033;-69
2022/08/08 06:35:51;;;;;;;51.20;48.08;;;;;;;22.59;40.26;102467.50;4880810;29;20452;-70
2022/08/08 06:38:20;;;;;;;48.22;45.72;;;;;;;22.59;39.95;102473.00;4882246;29;20041;-70
2022/08/08 06:40:50;;;;;;;50.05;47.15;;;;;;;22.60;39.98;102471.06;4881422;29;20111;-71
2022/08/08 06:43:19;;;;;;;50.28;47.42;;;;;;;22.62;40.30;102472.44;4881214;29;20033;-70
2022/08/08 06:45:45;;;;;;;48.25;45.85;;;;;;;22.63;39.81;102470.53;4881205;29;20033;-71
2022/08/08 06:48:10;;;;;;;48.70;45.92;;;;;;;22.64;39.68;102466.66;4880249;29;20395;-71
2022/08/08 06:50:36;;;;;;;49.25;46.45;;;;;;;22.66;39.97;102469.94;4881136;29;20037;-71
2022/08/08 06:53:03;;;;;;;49.08;46.50;;;;;;;22.68;39.96;102476.00;4880244;29;20413;-72
2022/08/08 06:55:29;;;;;;;51.15;48.22;;;;;;;22.70;40.23;102476.53;4881344;29;20037;-69
2022/08/08 06:57:55;;;;;;;50.97;48.15;;;;;;;22.73;39.70;102480.63;4880993;29;20040;-75
2022/08/08 07:00:21;;;;;;;47.78;45.33;;;;;;;22.75;40.22;102482.00;4881427;29;20041;-71
2022/08/08 07:02:59;;;;;;;49.13;46.60;;;;;;;22.77;40.24;102479.81;4881066;29;20041;-71
2022/08/08 07:05:25;;;;;;;49.00;46.20;;;;;;;22.80;39.63;102479.22;4880795;29;20048;-71
2022/08/08 07:08:00;;;;;;;51.25;48.33;;;;;;;22.83;40.15;102478.69;4880915;29;20026;-70
2022/08/08 07:10:34;;;;;;;49.05;46.42;;;;;;;22.85;40.03;102473.69;4880821;29;20041;-69
2022/08/08 07:13:08;;;;;;;49.08;46.58;;;;;;;22.87;39.69;102476.16;4879773;29;20048;-70
2022/08/08 07:15:48;;;;;;;50.63;47.33;;;;;;;22.89;40.04;102480.28;4881018;29;20037;-70
2022/08/08 07:18:29;;;;;;;48.28;45.60;;;;;;;22.92;39.48;102489.09;4881028;29;20037;-70
2022/08/08 07:21:02;;;;;;;49.40;46.58;;;;;;;22.94;39.79;102486.88;4880751;29;20033;-70
2022/08/08 07:23:50;;;;;;;50.08;47.42;;;;;;;22.97;39.68;102487.16;4880586;29;20037;-71
2022/08/08 07:26:15;;;;;;;;;;;;;;;22.99;39.43;102495.97;4881457;29;20033;-71
2022/08/08 07:28:42;;;;;;;49.53;46.92;;;;;;;23.01;39.55;102495.72;4880107;29;19911;-72
2022/08/08 07:31:08;;;;;;;49.80;46.75;;;;;;;23.02;39.81;102497.34;4880625;29;20469;-69
2022/08/08 07:33:35;;;;;;;50.97;48.13;;;;;;;23.04;39.79;102495.94;4880398;29;20041;-71
2022/08/08 07:36:04;;;;;;;49.22;46.70;;;;;;;23.09;40.29;102506.13;4880277;29;20117;-69
2022/08/08 07:38:32;;;;;;;49.88;47.15;;;;;;;23.12;40.60;102491.75;4880262;29;20040;-72
2022/08/08 07:40:57;;;;;;;50.30;47.50;;;;;;;23.15;40.28;102499.47;4880652;29;20092;-71
2022/08/08 07:43:23;;;;;;;51.38;48.42;;;;;;;23.18;40.48;102490.63;4880215;29;20143;-70
2022/08/08 07:45:48;;;;;;;50.75;47.53;;;;;;;23.21;40.17;102494.72;4879054;29;20551;-70
2022/08/08 07:48:14;;;;;;;51.47;48.67;;;;;;;23.23;40.68;102490.56;4880544;29;20150;-70
2022/08/08 07:50:39;;;;;;;50.75;47.75;;;;;;;23.27;40.63;102491.66;4879975;29;20047;-71
2022/08/08 07:53:30;;;;;;;51.45;48.88;;;;;;;23.33;40.38;102501.56;4894290;29;20513;-70
2022/08/08 07:56:00;;;;;;;51.00;48.00;;;;;;;23.38;40.71;102497.09;4879910;29;20474;-71
2022/08/08 07:58:37;;;;;;;51.33;48.83;;;;;;;23.41;40.57;102499.28;4879495;29;20041;-70
2022/08/08 08:01:14;;;;;;;52.45;49.47;;;;;;;23.43;40.24;102505.34;4879451;29;20029;-72
2022/08/08 08:03:49;;;;;;;51.50;48.75;;;;;;;23.48;40.35;102508.88;4880034;29;20033;-70
2022/08/08 08:06:16;;;;;;;49.70;46.97;;;;;;;23.52;40.85;102511.91;4879865;29;20029;-69
2022/08/08 08:08:48;;;;;;;51.60;49.00;;;;;;;23.57;40.33;102513.81;4878428;29;20462;-72
2022/08/08 08:11:18;;;;;;;51.22;48.58;;;;;;;23.61;40.71;102515.69;4879909;29;20044;-68
2022/08/08 08:13:52;;;;;;;51.92;49.25;;;;;;;23.66;40.72;102512.91;4879562;29;20033;-70
2022/08/08 08:16:22;;;;;;;50.65;47.85;;;;;;;23.72;40.63;102514.53;4880084;29;20107;-71
2022/08/08 08:18:58;;;;;;;52.78;49.97;;;;;;;23.78;40.59;102512.53;4879510;29;20036;-72
2022/08/08 08:21:28;;;;;;;55.83;53.00;;;;;;;23.84;40.76;102514.16;4880148;29;20036;-72
2022/08/08 08:23:53;;;;;;;54.13;51.22;;;;;;;23.91;41.03;102514.66;4878649;29;20056;-71
2022/08/08 08:26:20;;;;;;;53.33;50.40;;;;;;;23.95;40.89;102515.69;4893919;29;20466;-71
2022/08/08 08:28:45;;;;;;;52.95;50.25;;;;;;;24.01;40.91;102516.47;4878931;29;20048;-72
2022/08/08 08:31:11;;;;;;;53.78;50.95;;;;;;;24.08;40.25;102518.88;4879497;29;20033;-71
2022/08/08 08:33:36;;;;;;;53.90;51.10;;;;;;;24.14;40.69;102526.84;4879210;29;20106;-73
2022/08/08 08:36:03;;;;;;;51.88;49.38;;;;;;;24.22;40.61;102535.56;4877854;29;20129;-72
2022/08/08 08:38:29;;;;;;;53.95;51.35;;;;;;;24.30;40.24;102521.16;4862782;29;20036;-71
2022/08/08 08:40:54;;;;;;;54.85;52.22;;;;;;;24.36;40.46;102523.53;4877931;29;20039;-70
2022/08/08 08:43:20;;;;;;;54.28;51.42;;;;;;;24.44;39.99;102515.72;4879331;29;20068;-76
2022/08/08 08:45:47;;;;;;;56.22;53.42;;;;;;;24.52;40.44;102523.41;4878724;29;20045;-72
2022/08/08 08:48:13;;;;;;;54.08;51.38;;;;;;;24.58;39.92;102525.81;4893370;29;20097;-71
2022/08/08 08:50:42;;;;;;;56.63;53.78;;;;;;;24.68;39.96;102526.81;4893409;29;20371;-70
2022/08/08 08:53:09;;;;;;;56.33;53.33;;;;;;;24.76;39.90;102528.91;4879203;29;20044;-70
2022/08/08 08:55:38;;;;;;;56.10;53.30;;;;;;;24.82;40.04;102519.44;4877594;29;20561;-71
2022/08/08 08:58:06;;;;;;;56.75;54.05;;;;;;;24.91;39.52;102523.19;4878311;29;20040;-73
2022/08/08 09:00:35;;;;;;;55.63;52.83;;;;;;;25.00;39.79;102528.91;4879080;29;20113;-71
2022/08/08 09:03:06;;;;;;;56.20;53.33;;;;;;;25.09;39.63;102531.81;4878462;29;20371;-72
2022/08/08 09:05:37;;;;;;;56.30;53.13;;;;;;;25.18;39.70;102530.06;4879268;29;20037;-72
2022/08/08 09:08:06;;;;;;;58.58;55.47;;;;;;;25.26;39.34;102530.19;4879513;29;20036;-71
2022/08/08 09:10:34;;;;;;;60.50;57.17;;;;;;;25.35;39.49;102530.34;4879194;29;20037;-71
2022/08/08 09:13:01;;;;;;;59.20;56.35;;;;;;;25.44;39.14;102527.72;4882052;29;20052;-71
2022/08/08 09:15:26;;;;;;;57.60;54.85;;;;;;;25.52;39.42;102524.25;4897124;29;20037;-71
2022/08/08 09:17:52;;;;;;;62.13;59.13;;;;;;;25.62;39.18;102534.34;4865814;29;20115;-72
2022/08/08 09:20:18;;;;;;;60.85;57.75;;;;;;;25.69;38.98;102538.38;4897353;29;20119;-70
2022/08/08 09:22:44;;;;;;;60.15;57.05;;;;;;;25.79;38.54;102540.16;4882267;29;20513;-71
2022/08/08 09:25:10;;;;;;;59.88;56.95;;;;;;;25.86;38.48;102534.28;4882574;29;20138;-72
2022/08/08 09:27:38;;;;;;;61.28;58.25;;;;;;;25.95;38.99;102534.38;4882746;29;20033;-71
2022/08/08 09:30:09;;;;;;;64.20;61.10;;;;;;;26.03;38.75;102534.53;4882448;29;20503;-71
2022/08/08 09:32:43;;;;;;;60.75;57.85;;;;;;;26.14;38.71;102535.16;4882420;29;20462;-71
2022/08/08 09:35:11;;;;;;;60.75;57.33;;;;;;;26.23;38.60;102529.72;4882411;29;20120;-71
2022/08/08 09:37:48;;;;;;;63.85;60.65;;;;;;;26.31;38.36;102527.06;4882226;29;20037;-72
2022/08/08 09:40:19;;;;;;;61.55;58.67;;;;;;;26.40;38.32;102529.94;4882326;29;20538;-70
2022/08/08 09:42:48;;;;;;;65.45;62.35;;;;;;;26.50;38.30;102531.69;4882463;29;20033;-70
2022/08/08 09:45:19;;;;;;;64.00;60.90;;;;;;;26.59;37.78;102529.06;4881303;29;20490;-70
2022/08/08 09:47:45;;;;;;;64.13;61.03;;;;;;;26.67;37.39;102520.00;4882499;29;20060;-70
2022/08/08 09:50:13;;;;;;;65.15;62.05;;;;;;;26.76;37.33;102518.13;4897285;29;20060;-70
2022/08/08 09:52:42;;;;;;;63.97;60.70;;;;;;;26.86;37.34;102519.88;4881914;29;20092;-71
2022/08/08 09:55:08;;;;;;;64.53;61.63;;;;;;;26.96;37.17;102519.63;4881830;29;20080;-70
2022/08/08 09:57:36;;;;;;;65.05;62.05;;;;;;;27.03;37.21;102514.50;4882131;29;20132;-71
2022/08/08 10:00:06;;;;;;;65.35;62.25;;;;;;;27.12;36.42;102518.19;4881963;29;20037;-71
2022/08/08 10:02:35;;;;;;;65.25;62.25;;;;;;;27.19;36.75;102517.78;4882320;29;20037;-70
2022/08/08 10:05:07;;;;;;;66.45;63.20;;;;;;;27.30;36.36;102515.59;4881884;29;20041;-71
2022/08/08 10:07:33;;;;;;;69.97;66.78;;;;;;;27.37;36.94;102521.53;4882442;29;20044;-69
2022/08/08 10:09:59;;;;;;;67.15;64.00;;;;;;;27.47;36.19;102525.97;4882076;29;20080;-71
2022/08/08 10:12:36;;;;;;;68.90;65.72;;;;;;;27.55;35.80;102517.72;4881916;29;20085;-70
2022/08/08 10:15:05;;;;;;;67.90;64.40;;;;;;;27.63;36.24;102522.53;4881080;29;20180;-69
2022/08/08 10:17:32;;;;;;;72.35;68.95;;;;;;;27.70;36.21;102519.31;4881789;29;20269;-70
2022/08/08 10:20:00;;;;;;;71.50;68.20;;;;;;;27.80;35.72;102529.34;4881782;29;20115;-72
2022/08/08 10:22:27;;;;;;;70.10;66.95;;;;;;;27.86;36.04;102530.88;4881765;29;20040;-70
2022/08/08 10:25:05;;;;;;;73.85;70.53;;;;;;;27.92;35.47;102526.00;4880726;29;20041;-71
2022/08/08 10:27:40;;;;;;;73.60;70.13;;;;;;;28.00;35.46;102526.06;4882087;29;20045;-72
2022/08/08 10:30:07;;;;;;;75.78;72.22;;;;;;;28.07;35.31;102524.75;4880459;29;20485;-71
2022/08/08 10:32:35;;;;;;;69.10;65.95;;;;;;;28.12;35.79;102528.22;4880311;29;20444;-71
2022/08/08 10:35:03;;;;;;;;;;;;;;;28.17;35.92;102528.09;4881376;29;20092;-71
2022/08/08 10:37:34;;;;;;;71.43;68.03;;;;;;;28.19;35.77;102525.00;4895995;29;19916;-72
2022/08/08 10:40:14;;;;;;;75.85;72.45;;;;;;;28.17;35.14;102517.00;4881613;29;20029;-70
2022/08/08 10:42:40;;;;;;;71.65;68.35;;;;;;;28.21;35.13;102523.53;4881895;29;20138;-71
2022/08/08 10:45:07;;;;;;;72.60;69.22;;;;;;;28.27;34.61;102525.03;4881058;29;20052;-70
2022/08/08 10:47:33;;;;;;;69.35;66.15;;;;;;;28.31;34.77;102528.00;4881275;29;20037;-71
2022/08/08 10:50:00;;;;;;;76.80;73.20;;;;;;;28.35;34.36;102526.22;4881247;29;20129;-70
2022/08/08 10:52:40;;;;;;;73.40;69.80;;;;;;;28.41;35.16;102524.91;4881301;29;20044;-69
2022/08/08 10:55:14;;;;;;;73.60;70.18;;;;;;;28.45;34.78;102528.75;4880879;29;20423;-71
2022/08/08 10:57:44;;;;;;;74.80;71.25;;;;;;;28.50;34.67;102525.00;4881539;29;20032;-75
2022/08/08 11:00:11;;;;;;;76.20;72.75;;;;;;;28.54;34.40;102525.97;4880985;29;20113;-75
2022/08/08 11:02:37;;;;;;;73.63;70.22;;;;;;;28.57;34.41;102524.50;4880907;29;20043;-71
2022/08/08 11:05:08;;;;;;;80.15;76.18;;;;;;;28.61;34.62;102519.94;4880580;29;20048;-71
2022/08/08 11:07:36;;;;;;;78.07;74.53;;;;;;;28.65;33.93;102520.94;4880299;29;20419;-70
2022/08/08 11:10:10;;;;;;;76.57;73.18;;;;;;;28.68;34.36;102511.97;4880784;29;20033;-69
2022/08/08 11:12:51;;;;;;;78.55;75.05;;;;;;;28.70;34.05;102506.88;4881529;29;20041;-70
2022/08/08 11:15:19;;;;;;;75.05;71.55;;;;;;;28.73;34.12;102513.75;4880673;29;20036;-70
2022/08/08 11:17:46;;;;;;;77.65;73.85;;;;;;;28.76;34.55;102510.34;4880483;29;20043;-71
2022/08/08 11:20:17;;;;;;;74.20;70.90;;;;;;;28.77;34.32;102507.22;4880601;29;20043;-75
2022/08/08 11:22:48;;;;;;;76.53;73.13;;;;;;;28.81;34.30;102507.41;4881027;29;20029;-71
2022/08/08 11:25:14;;;;;;;75.72;71.97;;;;;;;28.83;34.37;102502.34;4880586;29;20067;-71
2022/08/08 11:27:41;;;;;;;79.53;76.03;;;;;;;28.84;34.11;102499.22;4880892;29;20363;-71
2022/08/08 11:30:08;;;;;;;76.60;73.00;;;;;;;28.86;33.88;102499.72;4880510;29;20459;-71
2022/08/08 11:32:37;;;;;;;78.90;75.18;;;;;;;28.88;33.83;102497.44;4894588;29;20037;-72
2022/08/08 11:35:07;;;;;;;79.43;75.80;;;;;;;28.91;33.21;102494.00;4879901;29;20037;-70
2022/08/08 11:37:34;;;;;;;77.25;73.75;;;;;;;28.93;33.27;102493.69;4880724;29;20033;-69
2022/08/08 11:40:01;;;;;;;78.57;74.88;;;;;;;28.96;32.78;102489.44;4880114;29;20480;-69
2022/08/08 11:42:28;;;;;;;76.50;73.05;;;;;;;28.99;33.03;102486.78;4879091;29;20037;-70